sensor_id;sensor_type;location;lat;lon;timestamp;temperature;humidity
11214;DHT22;5664;48.606;13.456;2022-10-31T00:00:15;20.10;98.50
11214;DHT22;5664;48.606;13.456;2022-10-31T00:02:40;20.00;98.50
11214;DHT22;5664;48.606;13.456;2022-10-31T00:05:06;20.00;98.50
11214;DHT22;5664;48.606;13.456;2022-10-31T00:07:31;20.00;98.50
11214;DHT22;5664;48.606;13.456;2022-10-31T00:09:57;20.00;98.40
11214;DHT22;5664;48.606;13.456;2022-10-31T00:12:22;20.00;98.40
11214;DHT22;5664;48.606;13.456;2022-10-31T00:14:48;20.00;98.40
11214;DHT22;5664;48.606;13.456;2022-10-31T00:17:13;20.00;98.40
11214;DHT22;5664;48.606;13.456;2022-10-31T00:19:39;20.00;98.40
11214;DHT22;5664;48.606;13.456;2022-10-31T00:22:04;20.00;98.30
11214;DHT22;5664;48.606;13.456;2022-10-31T00:24:29;20.00;98.30
11214;DHT22;5664;48.606;13.456;2022-10-31T00:26:55;20.00;98.30
11214;DHT22;5664;48.606;13.456;2022-10-31T00:29:20;20.00;98.30
11214;DHT22;5664;48.606;13.456;2022-10-31T00:31:46;20.00;98.30
11214;DHT22;5664;48.606;13.456;2022-10-31T00:34:11;20.00;98.30
11214;DHT22;5664;48.606;13.456;2022-10-31T00:36:37;20.00;98.30
11214;DHT22;5664;48.606;13.456;2022-10-31T00:39:02;20.00;98.30
11214;DHT22;5664;48.606;13.456;2022-10-31T00:41:28;20.00;98.30
11214;DHT22;5664;48.606;13.456;2022-10-31T00:43:54;20.00;98.30
11214;DHT22;5664;48.606;13.456;2022-10-31T00:46:20;20.00;98.20
11214;DHT22;5664;48.606;13.456;2022-10-31T00:48:45;20.00;98.20
11214;DHT22;5664;48.606;13.456;2022-10-31T00:51:11;20.00;98.20
11214;DHT22;5664;48.606;13.456;2022-10-31T00:53:36;20.00;98.20
11214;DHT22;5664;48.606;13.456;2022-10-31T00:56:02;20.00;98.20
11214;DHT22;5664;48.606;13.456;2022-10-31T00:58:28;20.00;98.10
11214;DHT22;5664;48.606;13.456;2022-10-31T01:00:53;20.00;98.10
11214;DHT22;5664;48.606;13.456;2022-10-31T01:03:22;20.00;98.10
11214;DHT22;5664;48.606;13.456;2022-10-31T01:06:05;20.00;98.10
11214;DHT22;5664;48.606;13.456;2022-10-31T01:08:31;20.00;98.10
11214;DHT22;5664;48.606;13.456;2022-10-31T01:11:12;20.00;98.10
11214;DHT22;5664;48.606;13.456;2022-10-31T01:13:38;20.00;98.10
11214;DHT22;5664;48.606;13.456;2022-10-31T01:16:04;20.00;98.10
11214;DHT22;5664;48.606;13.456;2022-10-31T01:18:30;20.00;98.10
11214;DHT22;5664;48.606;13.456;2022-10-31T01:21:12;20.00;98.10
11214;DHT22;5664;48.606;13.456;2022-10-31T01:23:38;20.00;98.00
11214;DHT22;5664;48.606;13.456;2022-10-31T01:26:05;20.00;98.00
11214;DHT22;5664;48.606;13.456;2022-10-31T01:28:31;20.00;98.00
11214;DHT22;5664;48.606;13.456;2022-10-31T01:30:59;20.00;98.00
11214;DHT22;5664;48.606;13.456;2022-10-31T01:33:25;20.00;98.00
11214;DHT22;5664;48.606;13.456;2022-10-31T01:35:50;20.00;97.90
11214;DHT22;5664;48.606;13.456;2022-10-31T01:38:16;19.90;97.90
11214;DHT22;5664;48.606;13.456;2022-10-31T01:40:41;19.90;97.90
11214;DHT22;5664;48.606;13.456;2022-10-31T01:43:09;19.90;97.90
11214;DHT22;5664;48.606;13.456;2022-10-31T01:45:36;19.90;97.80
11214;DHT22;5664;48.606;13.456;2022-10-31T01:48:02;19.90;97.90
11214;DHT22;5664;48.606;13.456;2022-10-31T01:50:28;19.90;97.80
11214;DHT22;5664;48.606;13.456;2022-10-31T01:52:56;20.00;97.90
11214;DHT22;5664;48.606;13.456;2022-10-31T01:55:26;20.00;97.90
11214;DHT22;5664;48.606;13.456;2022-10-31T01:57:54;19.90;97.90
11214;DHT22;5664;48.606;13.456;2022-10-31T02:00:20;19.90;97.90
11214;DHT22;5664;48.606;13.456;2022-10-31T02:02:46;20.00;97.90
11214;DHT22;5664;48.606;13.456;2022-10-31T02:05:14;19.90;97.80
11214;DHT22;5664;48.606;13.456;2022-10-31T02:07:49;19.90;97.80
11214;DHT22;5664;48.606;13.456;2022-10-31T02:10:15;19.90;97.80
11214;DHT22;5664;48.606;13.456;2022-10-31T02:12:41;19.90;97.80
11214;DHT22;5664;48.606;13.456;2022-10-31T02:15:07;19.90;97.80
11214;DHT22;5664;48.606;13.456;2022-10-31T02:17:33;19.90;97.80
11214;DHT22;5664;48.606;13.456;2022-10-31T02:35:03;19.90;97.60
11214;DHT22;5664;48.606;13.456;2022-10-31T02:37:36;19.90;97.60
11214;DHT22;5664;48.606;13.456;2022-10-31T02:40:09;19.90;97.60
11214;DHT22;5664;48.606;13.456;2022-10-31T02:42:50;19.90;97.60
11214;DHT22;5664;48.606;13.456;2022-10-31T02:45:21;19.90;97.60
11214;DHT22;5664;48.606;13.456;2022-10-31T02:47:51;19.90;97.60
11214;DHT22;5664;48.606;13.456;2022-10-31T02:50:23;19.90;97.60
11214;DHT22;5664;48.606;13.456;2022-10-31T02:52:51;19.90;97.60
11214;DHT22;5664;48.606;13.456;2022-10-31T02:57:56;19.90;97.60
11214;DHT22;5664;48.606;13.456;2022-10-31T03:00:23;19.90;97.60
11214;DHT22;5664;48.606;13.456;2022-10-31T03:05:40;19.90;97.60
11214;DHT22;5664;48.606;13.456;2022-10-31T03:10:51;19.90;97.60
11214;DHT22;5664;48.606;13.456;2022-10-31T03:13:24;19.90;97.60
11214;DHT22;5664;48.606;13.456;2022-10-31T03:15:54;19.90;97.50
11214;DHT22;5664;48.606;13.456;2022-10-31T03:21:34;19.90;97.60
11214;DHT22;5664;48.606;13.456;2022-10-31T03:23:40;19.90;97.50
11214;DHT22;5664;48.606;13.456;2022-10-31T03:26:07;19.90;97.50
11214;DHT22;5664;48.606;13.456;2022-10-31T03:28:34;19.90;97.50
11214;DHT22;5664;48.606;13.456;2022-10-31T03:31:01;19.90;97.50
11214;DHT22;5664;48.606;13.456;2022-10-31T03:33:28;19.90;97.50
11214;DHT22;5664;48.606;13.456;2022-10-31T03:35:57;19.90;97.50
11214;DHT22;5664;48.606;13.456;2022-10-31T03:38:24;19.90;97.40
11214;DHT22;5664;48.606;13.456;2022-10-31T03:40:51;19.90;97.40
11214;DHT22;5664;48.606;13.456;2022-10-31T03:43:19;19.90;97.50
11214;DHT22;5664;48.606;13.456;2022-10-31T03:45:45;19.90;97.40
11214;DHT22;5664;48.606;13.456;2022-10-31T03:48:12;19.90;97.40
11214;DHT22;5664;48.606;13.456;2022-10-31T03:50:40;19.90;97.40
11214;DHT22;5664;48.606;13.456;2022-10-31T03:53:13;19.90;97.50
11214;DHT22;5664;48.606;13.456;2022-10-31T03:55:45;19.90;97.40
11214;DHT22;5664;48.606;13.456;2022-10-31T03:58:16;19.90;97.40
11214;DHT22;5664;48.606;13.456;2022-10-31T04:00:44;19.80;97.40
11214;DHT22;5664;48.606;13.456;2022-10-31T04:03:17;19.90;97.40
11214;DHT22;5664;48.606;13.456;2022-10-31T04:05:44;19.90;97.40
11214;DHT22;5664;48.606;13.456;2022-10-31T04:08:12;19.80;97.30
11214;DHT22;5664;48.606;13.456;2022-10-31T04:10:39;19.90;97.40
11214;DHT22;5664;48.606;13.456;2022-10-31T04:13:06;19.90;97.40
11214;DHT22;5664;48.606;13.456;2022-10-31T04:15:33;19.80;97.30
11214;DHT22;5664;48.606;13.456;2022-10-31T04:17:58;19.80;97.30
11214;DHT22;5664;48.606;13.456;2022-10-31T04:20:35;19.80;97.30
11214;DHT22;5664;48.606;13.456;2022-10-31T04:23:04;19.80;97.30
11214;DHT22;5664;48.606;13.456;2022-10-31T04:25:30;19.90;97.30
11214;DHT22;5664;48.606;13.456;2022-10-31T04:27:55;19.80;97.30
11214;DHT22;5664;48.606;13.456;2022-10-31T04:30:21;19.80;97.30
11214;DHT22;5664;48.606;13.456;2022-10-31T04:32:47;19.80;97.30
11214;DHT22;5664;48.606;13.456;2022-10-31T04:35:12;19.80;97.30
11214;DHT22;5664;48.606;13.456;2022-10-31T04:37:38;19.80;97.30
11214;DHT22;5664;48.606;13.456;2022-10-31T04:40:04;19.80;97.30
11214;DHT22;5664;48.606;13.456;2022-10-31T04:42:29;19.80;97.20
11214;DHT22;5664;48.606;13.456;2022-10-31T04:44:55;19.80;97.20
11214;DHT22;5664;48.606;13.456;2022-10-31T04:47:21;19.80;97.20
11214;DHT22;5664;48.606;13.456;2022-10-31T04:49:46;19.80;97.30
11214;DHT22;5664;48.606;13.456;2022-10-31T04:52:11;19.80;97.30
11214;DHT22;5664;48.606;13.456;2022-10-31T04:54:37;19.80;97.30
11214;DHT22;5664;48.606;13.456;2022-10-31T04:57:02;19.80;97.20
11214;DHT22;5664;48.606;13.456;2022-10-31T04:59:28;19.80;97.20
11214;DHT22;5664;48.606;13.456;2022-10-31T05:01:53;19.80;97.20
11214;DHT22;5664;48.606;13.456;2022-10-31T05:04:19;19.80;97.20
11214;DHT22;5664;48.606;13.456;2022-10-31T05:06:44;19.80;97.20
11214;DHT22;5664;48.606;13.456;2022-10-31T05:09:10;19.80;97.20
11214;DHT22;5664;48.606;13.456;2022-10-31T05:11:35;19.80;97.20
11214;DHT22;5664;48.606;13.456;2022-10-31T05:14:00;19.80;97.50
11214;DHT22;5664;48.606;13.456;2022-10-31T05:16:26;19.80;97.20
11214;DHT22;5664;48.606;13.456;2022-10-31T05:18:51;19.80;97.20
11214;DHT22;5664;48.606;13.456;2022-10-31T05:21:17;19.80;97.10
11214;DHT22;5664;48.606;13.456;2022-10-31T05:23:42;19.80;97.10
11214;DHT22;5664;48.606;13.456;2022-10-31T05:26:08;19.80;97.50
11214;DHT22;5664;48.606;13.456;2022-10-31T05:28:33;19.80;97.10
11214;DHT22;5664;48.606;13.456;2022-10-31T05:30:58;19.80;97.10
11214;DHT22;5664;48.606;13.456;2022-10-31T05:33:24;19.80;97.10
11214;DHT22;5664;48.606;13.456;2022-10-31T05:35:49;19.80;97.10
11214;DHT22;5664;48.606;13.456;2022-10-31T05:38:15;19.80;97.10
11214;DHT22;5664;48.606;13.456;2022-10-31T05:40:40;19.80;97.10
11214;DHT22;5664;48.606;13.456;2022-10-31T05:43:06;19.80;97.10
11214;DHT22;5664;48.606;13.456;2022-10-31T05:45:31;19.80;97.10
11214;DHT22;5664;48.606;13.456;2022-10-31T05:47:57;19.80;97.10
11214;DHT22;5664;48.606;13.456;2022-10-31T05:50:24;19.80;97.10
11214;DHT22;5664;48.606;13.456;2022-10-31T05:52:56;19.80;97.10
11214;DHT22;5664;48.606;13.456;2022-10-31T05:55:22;19.80;97.10
11214;DHT22;5664;48.606;13.456;2022-10-31T05:57:47;19.80;97.10
11214;DHT22;5664;48.606;13.456;2022-10-31T06:00:12;19.80;97.10
11214;DHT22;5664;48.606;13.456;2022-10-31T06:02:38;19.80;97.10
11214;DHT22;5664;48.606;13.456;2022-10-31T06:05:03;19.80;97.20
11214;DHT22;5664;48.606;13.456;2022-10-31T06:07:33;19.70;97.10
11214;DHT22;5664;48.606;13.456;2022-10-31T06:09:59;19.80;96.90
11214;DHT22;5664;48.606;13.456;2022-10-31T06:12:24;19.80;96.90
11214;DHT22;5664;48.606;13.456;2022-10-31T06:14:50;19.70;96.90
11214;DHT22;5664;48.606;13.456;2022-10-31T06:17:15;19.80;97.00
11214;DHT22;5664;48.606;13.456;2022-10-31T06:19:41;19.70;97.00
11214;DHT22;5664;48.606;13.456;2022-10-31T06:22:06;19.80;97.10
11214;DHT22;5664;48.606;13.456;2022-10-31T06:24:32;19.70;97.10
11214;DHT22;5664;48.606;13.456;2022-10-31T06:26:57;19.70;97.10
11214;DHT22;5664;48.606;13.456;2022-10-31T06:29:23;19.70;97.10
11214;DHT22;5664;48.606;13.456;2022-10-31T06:31:50;19.70;97.10
11214;DHT22;5664;48.606;13.456;2022-10-31T06:34:16;19.70;97.60
11214;DHT22;5664;48.606;13.456;2022-10-31T06:36:41;19.70;97.30
11214;DHT22;5664;48.606;13.456;2022-10-31T06:39:07;19.70;97.50
11214;DHT22;5664;48.606;13.456;2022-10-31T06:41:32;19.70;97.50
11214;DHT22;5664;48.606;13.456;2022-10-31T06:43:57;19.70;97.60
11214;DHT22;5664;48.606;13.456;2022-10-31T06:46:23;19.70;97.60
11214;DHT22;5664;48.606;13.456;2022-10-31T06:48:48;19.70;97.70
11214;DHT22;5664;48.606;13.456;2022-10-31T06:51:14;19.70;97.70
11214;DHT22;5664;48.606;13.456;2022-10-31T06:53:39;19.70;97.70
11214;DHT22;5664;48.606;13.456;2022-10-31T06:56:05;19.00;97.50
11214;DHT22;5664;48.606;13.456;2022-10-31T06:58:30;19.60;97.70
11214;DHT22;5664;48.606;13.456;2022-10-31T07:00:58;19.70;97.70
11214;DHT22;5664;48.606;13.456;2022-10-31T07:03:23;19.70;97.70
11214;DHT22;5664;48.606;13.456;2022-10-31T07:05:49;19.60;97.50
11214;DHT22;5664;48.606;13.456;2022-10-31T07:08:14;19.70;97.50
11214;DHT22;5664;48.606;13.456;2022-10-31T07:10:40;19.70;97.60
11214;DHT22;5664;48.606;13.456;2022-10-31T07:13:09;19.60;97.60
11214;DHT22;5664;48.606;13.456;2022-10-31T07:15:37;19.70;97.70
11214;DHT22;5664;48.606;13.456;2022-10-31T07:18:03;19.60;97.60
11214;DHT22;5664;48.606;13.456;2022-10-31T07:20:30;19.70;97.70
11214;DHT22;5664;48.606;13.456;2022-10-31T07:22:56;19.70;97.50
11214;DHT22;5664;48.606;13.456;2022-10-31T07:25:21;19.70;97.50
11214;DHT22;5664;48.606;13.456;2022-10-31T07:27:47;19.70;97.50
11214;DHT22;5664;48.606;13.456;2022-10-31T07:30:13;19.70;97.50
11214;DHT22;5664;48.606;13.456;2022-10-31T07:32:42;19.60;97.60
11214;DHT22;5664;48.606;13.456;2022-10-31T07:35:08;19.60;97.60
11214;DHT22;5664;48.606;13.456;2022-10-31T07:37:34;19.70;98.00
11214;DHT22;5664;48.606;13.456;2022-10-31T07:40:00;19.60;97.60
11214;DHT22;5664;48.606;13.456;2022-10-31T07:42:26;19.60;97.60
11214;DHT22;5664;48.606;13.456;2022-10-31T07:44:52;19.60;97.60
11214;DHT22;5664;48.606;13.456;2022-10-31T07:47:17;19.60;97.20
11214;DHT22;5664;48.606;13.456;2022-10-31T07:49:43;19.60;97.10
11214;DHT22;5664;48.606;13.456;2022-10-31T07:52:08;19.60;97.00
11214;DHT22;5664;48.606;13.456;2022-10-31T07:54:34;19.60;97.10
11214;DHT22;5664;48.606;13.456;2022-10-31T07:56:59;19.70;97.00
11214;DHT22;5664;48.606;13.456;2022-10-31T07:59:24;19.70;97.00
11214;DHT22;5664;48.606;13.456;2022-10-31T08:01:51;19.60;96.60
11214;DHT22;5664;48.606;13.456;2022-10-31T08:04:16;19.70;96.70
11214;DHT22;5664;48.606;13.456;2022-10-31T08:06:42;19.70;96.60
11214;DHT22;5664;48.606;13.456;2022-10-31T08:09:07;19.70;96.60
11214;DHT22;5664;48.606;13.456;2022-10-31T08:11:32;19.70;96.60
11214;DHT22;5664;48.606;13.456;2022-10-31T08:13:58;19.80;96.60
11214;DHT22;5664;48.606;13.456;2022-10-31T08:16:23;19.80;96.70
11214;DHT22;5664;48.606;13.456;2022-10-31T08:18:49;19.80;96.80
11214;DHT22;5664;48.606;13.456;2022-10-31T08:21:14;19.80;97.10
11214;DHT22;5664;48.606;13.456;2022-10-31T08:23:40;19.80;97.30
11214;DHT22;5664;48.606;13.456;2022-10-31T08:26:05;19.80;97.40
11214;DHT22;5664;48.606;13.456;2022-10-31T08:28:31;19.80;97.40
11214;DHT22;5664;48.606;13.456;2022-10-31T08:30:57;19.80;97.50
11214;DHT22;5664;48.606;13.456;2022-10-31T08:33:23;19.80;97.50
11214;DHT22;5664;48.606;13.456;2022-10-31T08:35:48;19.80;97.60
11214;DHT22;5664;48.606;13.456;2022-10-31T08:38:14;19.80;98.10
11214;DHT22;5664;48.606;13.456;2022-10-31T08:40:40;19.80;97.80
11214;DHT22;5664;48.606;13.456;2022-10-31T08:43:06;19.80;97.90
11214;DHT22;5664;48.606;13.456;2022-10-31T08:45:34;19.80;98.00
11214;DHT22;5664;48.606;13.456;2022-10-31T08:48:00;19.80;98.10
11214;DHT22;5664;48.606;13.456;2022-10-31T08:50:26;19.80;98.20
11214;DHT22;5664;48.606;13.456;2022-10-31T08:52:52;19.90;98.70
11214;DHT22;5664;48.606;13.456;2022-10-31T08:55:18;19.90;98.40
11214;DHT22;5664;48.606;13.456;2022-10-31T08:57:43;19.80;98.50
11214;DHT22;5664;48.606;13.456;2022-10-31T09:00:09;19.90;98.60
11214;DHT22;5664;48.606;13.456;2022-10-31T09:02:34;19.90;98.70
11214;DHT22;5664;48.606;13.456;2022-10-31T09:05:00;19.90;98.80
11214;DHT22;5664;48.606;13.456;2022-10-31T09:07:25;19.90;98.90
11214;DHT22;5664;48.606;13.456;2022-10-31T09:09:53;19.90;98.90
11214;DHT22;5664;48.606;13.456;2022-10-31T09:12:18;19.90;98.90
11214;DHT22;5664;48.606;13.456;2022-10-31T09:14:43;19.90;98.90
11214;DHT22;5664;48.606;13.456;2022-10-31T09:17:09;19.90;99.00
11214;DHT22;5664;48.606;13.456;2022-10-31T09:19:34;19.90;98.90
11214;DHT22;5664;48.606;13.456;2022-10-31T09:22:01;19.90;98.90
11214;DHT22;5664;48.606;13.456;2022-10-31T09:24:26;19.90;99.00
11214;DHT22;5664;48.606;13.456;2022-10-31T09:26:52;19.90;99.00
11214;DHT22;5664;48.606;13.456;2022-10-31T09:29:17;19.90;98.90
11214;DHT22;5664;48.606;13.456;2022-10-31T09:31:42;19.90;99.00
11214;DHT22;5664;48.606;13.456;2022-10-31T09:34:08;19.90;99.00
11214;DHT22;5664;48.606;13.456;2022-10-31T09:36:33;19.90;99.10
11214;DHT22;5664;48.606;13.456;2022-10-31T09:38:59;19.90;99.10
11214;DHT22;5664;48.606;13.456;2022-10-31T09:41:27;19.90;99.10
11214;DHT22;5664;48.606;13.456;2022-10-31T09:46:43;20.00;99.10
11214;DHT22;5664;48.606;13.456;2022-10-31T09:49:18;20.00;99.10
11214;DHT22;5664;48.606;13.456;2022-10-31T09:52:09;20.00;99.00
11214;DHT22;5664;48.606;13.456;2022-10-31T09:57:05;20.00;98.90
11214;DHT22;5664;48.606;13.456;2022-10-31T09:59:34;20.00;98.90
11214;DHT22;5664;48.606;13.456;2022-10-31T10:02:02;20.00;98.80
11214;DHT22;5664;48.606;13.456;2022-10-31T10:06:53;20.00;98.80
11214;DHT22;5664;48.606;13.456;2022-10-31T10:09:20;20.00;98.80
11214;DHT22;5664;48.606;13.456;2022-10-31T10:12:03;20.00;98.80
11214;DHT22;5664;48.606;13.456;2022-10-31T10:14:42;20.00;98.80
11214;DHT22;5664;48.606;13.456;2022-10-31T10:22:12;20.00;98.70
11214;DHT22;5664;48.606;13.456;2022-10-31T10:29:33;20.10;98.80
11214;DHT22;5664;48.606;13.456;2022-10-31T10:32:01;20.10;98.80
11214;DHT22;5664;48.606;13.456;2022-10-31T10:34:32;20.00;98.80
11214;DHT22;5664;48.606;13.456;2022-10-31T10:37:04;20.10;98.80
11214;DHT22;5664;48.606;13.456;2022-10-31T10:39:33;20.10;98.80
11214;DHT22;5664;48.606;13.456;2022-10-31T10:42:01;20.10;98.80
11214;DHT22;5664;48.606;13.456;2022-10-31T10:44:51;20.10;98.90
11214;DHT22;5664;48.606;13.456;2022-10-31T10:47:58;20.10;98.90
11214;DHT22;5664;48.606;13.456;2022-10-31T10:50:27;20.10;98.90
11214;DHT22;5664;48.606;13.456;2022-10-31T10:58:17;20.10;98.90
11214;DHT22;5664;48.606;13.456;2022-10-31T11:00:46;20.10;98.90
11214;DHT22;5664;48.606;13.456;2022-10-31T11:03:13;20.10;98.90
11214;DHT22;5664;48.606;13.456;2022-10-31T11:05:40;20.10;98.90
11214;DHT22;5664;48.606;13.456;2022-10-31T11:08:07;20.10;98.90
11214;DHT22;5664;48.606;13.456;2022-10-31T11:10:33;20.00;98.90
11214;DHT22;5664;48.606;13.456;2022-10-31T11:18:25;20.00;98.90
11214;DHT22;5664;48.606;13.456;2022-10-31T11:20:52;20.00;98.90
11214;DHT22;5664;48.606;13.456;2022-10-31T11:23:19;20.00;98.90
11214;DHT22;5664;48.606;13.456;2022-10-31T11:25:55;20.00;98.90
11214;DHT22;5664;48.606;13.456;2022-10-31T11:28:21;20.00;98.90
11214;DHT22;5664;48.606;13.456;2022-10-31T11:30:57;20.00;98.90
11214;DHT22;5664;48.606;13.456;2022-10-31T11:33:27;20.00;99.00
11214;DHT22;5664;48.606;13.456;2022-10-31T11:35:54;20.00;99.00
11214;DHT22;5664;48.606;13.456;2022-10-31T11:38:21;20.00;99.00
11214;DHT22;5664;48.606;13.456;2022-10-31T11:40:58;20.00;99.00
11214;DHT22;5664;48.606;13.456;2022-10-31T11:43:24;20.00;99.00
11214;DHT22;5664;48.606;13.456;2022-10-31T11:45:50;20.00;99.10
11214;DHT22;5664;48.606;13.456;2022-10-31T11:48:17;20.00;99.10
11214;DHT22;5664;48.606;13.456;2022-10-31T11:50:47;19.90;99.10
11214;DHT22;5664;48.606;13.456;2022-10-31T11:53:14;20.00;99.20
11214;DHT22;5664;48.606;13.456;2022-10-31T11:55:41;19.90;99.20
11214;DHT22;5664;48.606;13.456;2022-10-31T11:58:19;19.90;99.30
11214;DHT22;5664;48.606;13.456;2022-10-31T12:00:48;19.90;99.30
11214;DHT22;5664;48.606;13.456;2022-10-31T12:06:01;19.90;99.40
11214;DHT22;5664;48.606;13.456;2022-10-31T12:08:29;19.90;99.40
11214;DHT22;5664;48.606;13.456;2022-10-31T12:15:54;19.90;99.60
11214;DHT22;5664;48.606;13.456;2022-10-31T12:18:29;19.90;99.60
11214;DHT22;5664;48.606;13.456;2022-10-31T12:26:20;19.90;99.70
11214;DHT22;5664;48.606;13.456;2022-10-31T12:31:30;19.90;99.70
11214;DHT22;5664;48.606;13.456;2022-10-31T12:36:32;19.90;99.70
11214;DHT22;5664;48.606;13.456;2022-10-31T12:39:12;19.90;99.80
11214;DHT22;5664;48.606;13.456;2022-10-31T12:42:00;19.90;99.80
11214;DHT22;5664;48.606;13.456;2022-10-31T12:49:54;19.90;99.90
11214;DHT22;5664;48.606;13.456;2022-10-31T12:52:28;19.90;99.90
11214;DHT22;5664;48.606;13.456;2022-10-31T12:55:02;19.90;99.90
11214;DHT22;5664;48.606;13.456;2022-10-31T12:57:35;19.80;99.90
11214;DHT22;5664;48.606;13.456;2022-10-31T13:00:03;19.90;99.90
11214;DHT22;5664;48.606;13.456;2022-10-31T13:02:44;19.90;99.90
11214;DHT22;5664;48.606;13.456;2022-10-31T13:07:52;19.90;99.90
11214;DHT22;5664;48.606;13.456;2022-10-31T13:13:05;19.80;99.90
11214;DHT22;5664;48.606;13.456;2022-10-31T13:15:38;19.90;99.90
11214;DHT22;5664;48.606;13.456;2022-10-31T13:18:11;19.90;99.90
11214;DHT22;5664;48.606;13.456;2022-10-31T13:20:39;19.80;99.90
11214;DHT22;5664;48.606;13.456;2022-10-31T13:23:26;19.90;99.90
11214;DHT22;5664;48.606;13.456;2022-10-31T13:25:54;19.80;99.90
11214;DHT22;5664;48.606;13.456;2022-10-31T13:28:25;19.90;99.90
11214;DHT22;5664;48.606;13.456;2022-10-31T13:30:51;19.80;99.90
11214;DHT22;5664;48.606;13.456;2022-10-31T13:33:25;19.80;99.90
11214;DHT22;5664;48.606;13.456;2022-10-31T13:38:42;19.90;99.90
11214;DHT22;5664;48.606;13.456;2022-10-31T13:43:58;19.90;99.90
11214;DHT22;5664;48.606;13.456;2022-10-31T13:48:56;19.80;99.90
11214;DHT22;5664;48.606;13.456;2022-10-31T13:51:28;19.80;99.90
11214;DHT22;5664;48.606;13.456;2022-10-31T13:56:26;19.80;99.90
11214;DHT22;5664;48.606;13.456;2022-10-31T14:01:33;19.80;99.90
11214;DHT22;5664;48.606;13.456;2022-10-31T14:04:06;19.80;99.90
11214;DHT22;5664;48.606;13.456;2022-10-31T14:06:40;19.80;99.90
11214;DHT22;5664;48.606;13.456;2022-10-31T14:09:14;19.80;99.90
11214;DHT22;5664;48.606;13.456;2022-10-31T14:11:42;19.80;99.90
11214;DHT22;5664;48.606;13.456;2022-10-31T14:14:10;19.80;99.90
11214;DHT22;5664;48.606;13.456;2022-10-31T14:16:36;19.80;99.90
11214;DHT22;5664;48.606;13.456;2022-10-31T14:19:07;19.80;99.90
11214;DHT22;5664;48.606;13.456;2022-10-31T14:21:37;19.80;99.90
11214;DHT22;5664;48.606;13.456;2022-10-31T14:24:13;19.80;99.90
11214;DHT22;5664;48.606;13.456;2022-10-31T14:26:39;19.80;99.90
11214;DHT22;5664;48.606;13.456;2022-10-31T14:31:39;19.80;99.90
11214;DHT22;5664;48.606;13.456;2022-10-31T14:34:17;19.80;99.90
11214;DHT22;5664;48.606;13.456;2022-10-31T14:44:48;19.80;99.90
11214;DHT22;5664;48.606;13.456;2022-10-31T14:52:11;19.80;99.90
11214;DHT22;5664;48.606;13.456;2022-10-31T14:54:39;19.80;99.90
11214;DHT22;5664;48.606;13.456;2022-10-31T14:57:16;19.80;99.90
11214;DHT22;5664;48.606;13.456;2022-10-31T14:59:45;19.80;99.90
11214;DHT22;5664;48.606;13.456;2022-10-31T15:02:24;19.80;99.90
11214;DHT22;5664;48.606;13.456;2022-10-31T15:04:52;19.70;99.90
11214;DHT22;5664;48.606;13.456;2022-10-31T15:07:19;19.80;99.90
11214;DHT22;5664;48.606;13.456;2022-10-31T15:09:54;19.80;99.90
11214;DHT22;5664;48.606;13.456;2022-10-31T15:12:24;19.80;99.90
11214;DHT22;5664;48.606;13.456;2022-10-31T15:14:50;19.80;99.90
11214;DHT22;5664;48.606;13.456;2022-10-31T15:17:15;19.80;99.90
11214;DHT22;5664;48.606;13.456;2022-10-31T15:19:41;19.70;99.90
11214;DHT22;5664;48.606;13.456;2022-10-31T15:22:07;19.70;99.90
11214;DHT22;5664;48.606;13.456;2022-10-31T15:24:36;19.80;99.90
11214;DHT22;5664;48.606;13.456;2022-10-31T15:27:04;19.70;99.90
11214;DHT22;5664;48.606;13.456;2022-10-31T15:29:29;19.70;99.90
11214;DHT22;5664;48.606;13.456;2022-10-31T15:31:56;19.80;99.90
11214;DHT22;5664;48.606;13.456;2022-10-31T15:36:48;19.80;99.90
11214;DHT22;5664;48.606;13.456;2022-10-31T15:39:14;19.80;99.90
11214;DHT22;5664;48.606;13.456;2022-10-31T15:41:52;19.70;99.90
11214;DHT22;5664;48.606;13.456;2022-10-31T15:44:25;19.70;99.90
11214;DHT22;5664;48.606;13.456;2022-10-31T15:46:52;19.70;99.90
11214;DHT22;5664;48.606;13.456;2022-10-31T15:49:24;19.70;99.90
11214;DHT22;5664;48.606;13.456;2022-10-31T15:51:51;19.70;99.90
11214;DHT22;5664;48.606;13.456;2022-10-31T15:54:16;19.70;99.90
11214;DHT22;5664;48.606;13.456;2022-10-31T15:56:42;19.80;99.90
11214;DHT22;5664;48.606;13.456;2022-10-31T15:59:12;19.70;99.90
11214;DHT22;5664;48.606;13.456;2022-10-31T16:01:42;19.70;99.90
11214;DHT22;5664;48.606;13.456;2022-10-31T16:06:36;19.70;99.90
11214;DHT22;5664;48.606;13.456;2022-10-31T16:09:02;19.70;99.90
11214;DHT22;5664;48.606;13.456;2022-10-31T16:11:37;19.70;99.90
11214;DHT22;5664;48.606;13.456;2022-10-31T16:14:07;19.70;99.90
11214;DHT22;5664;48.606;13.456;2022-10-31T16:16:49;19.70;99.90
11214;DHT22;5664;48.606;13.456;2022-10-31T16:19:18;19.70;99.90
11214;DHT22;5664;48.606;13.456;2022-10-31T16:21:44;19.70;99.90
11214;DHT22;5664;48.606;13.456;2022-10-31T16:26:49;19.70;99.90
11214;DHT22;5664;48.606;13.456;2022-10-31T16:29:24;19.70;99.90
11214;DHT22;5664;48.606;13.456;2022-10-31T16:31:50;19.70;99.90
11214;DHT22;5664;48.606;13.456;2022-10-31T16:34:17;19.70;99.90
11214;DHT22;5664;48.606;13.456;2022-10-31T16:36:44;19.70;99.90
11214;DHT22;5664;48.606;13.456;2022-10-31T16:39:10;19.70;99.90
11214;DHT22;5664;48.606;13.456;2022-10-31T16:41:38;19.60;99.90
11214;DHT22;5664;48.606;13.456;2022-10-31T16:44:04;19.70;99.90
11214;DHT22;5664;48.606;13.456;2022-10-31T16:46:31;19.70;99.90
11214;DHT22;5664;48.606;13.456;2022-10-31T16:48:57;19.70;99.90
11214;DHT22;5664;48.606;13.456;2022-10-31T16:51:22;19.60;99.90
11214;DHT22;5664;48.606;13.456;2022-10-31T16:53:50;19.60;99.90
11214;DHT22;5664;48.606;13.456;2022-10-31T16:56:17;19.60;99.90
11214;DHT22;5664;48.606;13.456;2022-10-31T16:58:43;19.60;99.90
11214;DHT22;5664;48.606;13.456;2022-10-31T17:01:09;19.60;99.90
11214;DHT22;5664;48.606;13.456;2022-10-31T17:03:35;19.60;99.90
11214;DHT22;5664;48.606;13.456;2022-10-31T17:06:01;19.60;99.90
11214;DHT22;5664;48.606;13.456;2022-10-31T17:08:26;19.60;99.90
11214;DHT22;5664;48.606;13.456;2022-10-31T17:10:53;19.60;99.90
11214;DHT22;5664;48.606;13.456;2022-10-31T17:13:23;19.60;99.90
11214;DHT22;5664;48.606;13.456;2022-10-31T17:15:50;19.60;99.90
11214;DHT22;5664;48.606;13.456;2022-10-31T17:18:16;19.60;99.90
11214;DHT22;5664;48.606;13.456;2022-10-31T17:20:42;19.60;99.90
11214;DHT22;5664;48.606;13.456;2022-10-31T17:23:12;19.60;99.90
11214;DHT22;5664;48.606;13.456;2022-10-31T17:25:38;19.60;99.90
11214;DHT22;5664;48.606;13.456;2022-10-31T17:28:03;19.60;99.90
11214;DHT22;5664;48.606;13.456;2022-10-31T17:30:30;19.60;99.90
11214;DHT22;5664;48.606;13.456;2022-10-31T17:32:55;19.60;99.90